Details for Air Canada Jazz at CYUL




Go Back


Latest METAR
Local Time

CYUL 241300Z 28016KT 15SM SCT020 BKN060 BKN150 03/M00 A3010 RMK SC3SC3AC1 SLP196

24/02/2018, 08:49:30

Description
Results
Air Canada Jazz Logo
Number of Pilots based at CYUL
0 Pilots Based here
Number of Air Canada Jazz Flights Departed from CYUL
0 Flights Departed
Number of Air Canada Jazz Flights Arrived at CYUL
0 Flights Arrived
Number of Air Canada Jazz Schedules Departing from CYUL
73 Schedules
Number of Air Canada Jazz Schedules Arriving at CYUL
79 Schedules
Number of Air Canada Jazz Schedules Departing from CYUL availible today
54 Schedules Today
Number of Air Canada Jazz Schedules Arriving at CYUL availible today
59 Schedules Today
Average Landing Rate at CYUL
-193 fpm
Air Canada Jazz Average Landing Rate at CYUL
0 fpm
Total Fuel Purchased at CYUL by Air Canada Jazz
0.00 kgs / 0.00 lbs

Pilots Based at CYUL


Pilot ID
Pilot Name
Pilot Rank
No. of Flights
No. of Flying Hours
There are no pilots assigned to this hub!   Will you be the first?
Content